createdAt,value
2023-04-02T00:00:06.428Z,2.26
2023-04-02T00:02:33.839Z,2.22
2023-04-02T00:05:19.819Z,2.12
2023-04-02T00:07:51.808Z,2.08
2023-04-02T00:10:35.866Z,1.97
2023-04-02T00:13:04.082Z,1.93
2023-04-02T00:15:31.764Z,1.89
2023-04-02T00:18:00.185Z,1.85
2023-04-02T00:20:28.712Z,1.81
2023-04-02T00:22:56.758Z,1.79
2023-04-02T00:25:28.196Z,1.72
2023-04-02T00:27:56.208Z,1.69
2023-04-02T00:30:23.214Z,1.67
2023-04-02T00:32:50.052Z,1.63
2023-04-02T00:35:26.196Z,1.58
2023-04-02T00:37:53.437Z,1.59
2023-04-02T00:40:26.960Z,1.54
2023-04-02T00:42:56.112Z,1.54
2023-04-02T00:45:29.416Z,1.49
2023-04-02T00:48:13.339Z,1.44
2023-04-02T00:50:42.978Z,1.40
2023-04-02T00:53:17.514Z,1.37
2023-04-02T00:55:44.437Z,1.34
2023-04-02T00:58:34.355Z,1.30
2023-04-02T01:01:01.717Z,1.28
2023-04-02T01:03:39.290Z,1.27
2023-04-02T01:06:11.113Z,1.22
2023-04-02T01:08:56.618Z,1.18
2023-04-02T01:12:08.344Z,1.11
2023-04-02T01:14:40.904Z,1.11
2023-04-02T01:17:18.743Z,1.06
2023-04-02T01:20:08.041Z,0.99
2023-04-02T01:22:35.335Z,0.94
2023-04-02T01:25:04.756Z,0.89
2023-04-02T01:27:39.934Z,0.86
2023-04-02T01:30:08.162Z,0.87
2023-04-02T01:32:35.805Z,0.81
2023-04-02T01:35:02.560Z,0.83
2023-04-02T01:37:58.272Z,0.79
2023-04-02T01:40:46.451Z,0.79
2023-04-02T01:43:33.383Z,0.77
2023-04-02T01:46:05.957Z,0.75
2023-04-02T01:48:32.819Z,0.73
2023-04-02T01:51:01.096Z,0.71
2023-04-02T01:53:30.525Z,0.74
2023-04-02T01:56:00.181Z,0.69
2023-04-02T01:58:31.479Z,0.71
2023-04-02T02:01:12.524Z,0.66
2023-04-02T02:03:42.303Z,0.66
2023-04-02T02:06:13.040Z,0.61
2023-04-02T02:09:03.968Z,0.56
2023-04-02T02:11:32.559Z,0.57
2023-04-02T02:14:05.791Z,0.52
2023-04-02T02:16:41.944Z,0.51
2023-04-02T02:19:21.975Z,0.51
2023-04-02T02:21:56.666Z,0.47
2023-04-02T02:24:31.840Z,0.49
2023-04-02T02:27:13.672Z,0.48
2023-04-02T02:29:42.987Z,0.49
2023-04-02T02:32:13.146Z,0.51
2023-04-02T02:34:46.608Z,0.53
2023-04-02T02:37:23.603Z,0.52
2023-04-02T02:39:55.192Z,0.55
2023-04-02T02:42:25.127Z,0.58
2023-04-02T02:44:54.329Z,0.59
2023-04-02T02:47:29.592Z,0.55
2023-04-02T02:50:07.343Z,0.54
2023-04-02T02:52:38.694Z,0.55
2023-04-02T02:55:10.935Z,0.53
2023-04-02T02:57:43.420Z,0.48
2023-04-02T03:00:16.268Z,0.49
2023-04-02T03:02:44.969Z,0.49
2023-04-02T03:05:19.413Z,0.46
2023-04-02T03:07:46.318Z,0.45
2023-04-02T03:10:13.346Z,0.45
2023-04-02T03:12:54.870Z,0.38
2023-04-02T03:15:34.061Z,0.36
2023-04-02T03:18:08.854Z,0.28
2023-04-02T03:20:48.177Z,0.26
2023-04-02T03:23:28.057Z,0.20
2023-04-02T03:26:16.435Z,0.15
2023-04-02T03:28:47.770Z,0.12
2023-04-02T03:31:24.749Z,0.14
2023-04-02T03:33:56.957Z,0.11
2023-04-02T03:36:31.100Z,0.11
2023-04-02T03:39:12.373Z,0.11
2023-04-02T03:41:48.044Z,0.09
2023-04-02T03:44:26.260Z,0.07
2023-04-02T03:46:57.817Z,0.06
2023-04-02T03:49:31.507Z,0.06
2023-04-02T03:52:13.873Z,0.05
2023-04-02T03:54:53.822Z,0.03
2023-04-02T03:57:37.039Z,-0.03
2023-04-02T04:00:17.513Z,-0.06
2023-04-02T04:02:55.030Z,-0.08
2023-04-02T04:05:28.864Z,-0.11
2023-04-02T04:08:02.408Z,-0.16
2023-04-02T04:10:30.723Z,-0.20
2023-04-02T04:13:06.056Z,-0.24
2023-04-02T04:15:43.093Z,-0.28
2023-04-02T04:18:35.166Z,-0.33
2023-04-02T04:21:05.827Z,-0.40
2023-04-02T04:23:36.326Z,-0.40
2023-04-02T04:26:12.061Z,-0.42
2023-04-02T04:28:47.834Z,-0.46
2023-04-02T04:31:18.210Z,-0.50
2023-04-02T04:33:50.778Z,-0.51
2023-04-02T04:36:32.933Z,-0.53
2023-04-02T04:39:06.339Z,-0.58
2023-04-02T04:41:37.796Z,-0.60
2023-04-02T04:44:08.130Z,-0.63
2023-04-02T04:46:58.023Z,-0.64
2023-04-02T04:49:28.383Z,-0.68
2023-04-02T04:51:58.727Z,-0.69
2023-04-02T04:54:29.156Z,-0.67
2023-04-02T04:57:01.339Z,-0.64
2023-04-02T04:59:42.942Z,-0.66
2023-04-02T05:02:20.197Z,-0.64
2023-04-02T05:04:52.302Z,-0.70
2023-04-02T05:07:26.182Z,-0.68
2023-04-02T05:10:18.800Z,-0.73
2023-04-02T05:12:59.753Z,-0.71
2023-04-02T05:15:36.366Z,-0.69
2023-04-02T05:18:42.018Z,-0.73
2023-04-02T05:21:21.061Z,-0.72
2023-04-02T05:24:18.221Z,-0.67
2023-04-02T05:26:47.781Z,-0.67
2023-04-02T05:29:22.776Z,-0.65
2023-04-02T05:32:04.356Z,-0.64
2023-04-02T05:34:37.341Z,-0.58
2023-04-02T05:37:07.044Z,-0.60
2023-04-02T05:39:34.180Z,-0.55
2023-04-02T05:42:06.609Z,-0.53
2023-04-02T05:44:49.022Z,-0.51
2023-04-02T05:47:23.140Z,-0.42
2023-04-02T05:50:12.048Z,-0.40
2023-04-02T05:52:52.066Z,-0.23
2023-04-02T05:56:03.628Z,-0.18
2023-04-02T05:58:48.334Z,-0.07
2023-04-02T06:01:29.674Z,-0.04
2023-04-02T06:04:28.509Z,0.06
2023-04-02T06:07:12.436Z,0.06
2023-04-02T06:09:56.674Z,0.05
2023-04-02T06:12:38.316Z,0.11
2023-04-02T06:15:07.017Z,0.17
2023-04-02T06:17:46.913Z,0.24
2023-04-02T06:20:16.894Z,0.27
2023-04-02T06:22:47.514Z,0.33
2023-04-02T06:25:33.110Z,0.44
2023-04-02T06:28:04.044Z,0.50
2023-04-02T06:30:37.835Z,0.56
2023-04-02T06:33:05.118Z,0.61
2023-04-02T06:35:34.934Z,0.69
2023-04-02T06:38:06.201Z,0.81
2023-04-02T06:40:52.339Z,0.91
2023-04-02T06:43:33.706Z,1.00
2023-04-02T06:46:06.347Z,1.06
2023-04-02T06:48:34.537Z,1.15
2023-04-02T06:51:08.462Z,1.15
2023-04-02T06:53:47.749Z,1.16
2023-04-02T06:56:48.016Z,1.24
2023-04-02T06:59:16.615Z,1.29
2023-04-02T07:02:16.813Z,1.35
2023-04-02T07:04:43.770Z,1.37
2023-04-02T07:07:10.488Z,1.37
2023-04-02T07:09:37.167Z,1.40
2023-04-02T07:12:11.552Z,1.51
2023-04-02T07:14:38.436Z,1.61
2023-04-02T07:17:05.238Z,1.68
2023-04-02T07:19:31.982Z,1.79
2023-04-02T07:21:59.147Z,1.90
2023-04-02T07:24:25.803Z,2.04
2023-04-02T07:26:52.485Z,1.97
2023-04-02T07:29:20.067Z,2.06
2023-04-02T07:31:46.926Z,2.16
2023-04-02T07:34:13.858Z,2.28
2023-04-02T07:36:40.737Z,2.38
2023-04-02T07:39:07.525Z,2.41
2023-04-02T07:41:34.173Z,2.45
2023-04-02T07:44:00.917Z,2.56
2023-04-02T07:46:27.630Z,2.60
2023-04-02T07:48:54.417Z,2.68
2023-04-02T07:51:24.254Z,2.70
2023-04-02T07:53:56.277Z,2.93
2023-04-02T07:56:25.163Z,2.93
2023-04-02T07:58:51.973Z,2.92
2023-04-02T08:01:27.001Z,3.04
2023-04-02T08:03:55.286Z,3.05
2023-04-02T08:06:23.065Z,3.09
2023-04-02T08:08:50.971Z,3.04
2023-04-02T08:11:17.784Z,3.24
2023-04-02T08:13:44.751Z,3.33
2023-04-02T08:16:11.959Z,3.38
2023-04-02T08:18:39.132Z,3.54
2023-04-02T08:21:08.838Z,3.55
2023-04-02T08:23:36.185Z,3.70
2023-04-02T08:26:03.546Z,3.59
2023-04-02T08:28:30.396Z,3.54
2023-04-02T08:30:57.292Z,3.41
2023-04-02T08:33:24.034Z,3.44
2023-04-02T08:35:51.362Z,3.53
2023-04-02T08:38:21.760Z,3.81
2023-04-02T08:40:56.366Z,3.89
2023-04-02T08:43:39.120Z,3.92
2023-04-02T08:46:08.914Z,4.05
2023-04-02T08:48:40.751Z,4.20
2023-04-02T08:51:23.352Z,4.39
2023-04-02T08:53:52.898Z,4.42
2023-04-02T08:56:29.603Z,4.55
2023-04-02T08:59:25.978Z,4.43
2023-04-02T09:01:57.958Z,4.67
2023-04-02T09:04:26.738Z,4.85
2023-04-02T09:06:56.847Z,4.80
2023-04-02T09:09:25.079Z,4.94
2023-04-02T09:12:04.284Z,5.23
2023-04-02T09:14:42.343Z,5.26
2023-04-02T09:17:21.427Z,5.18
2023-04-02T09:20:19.831Z,5.07
2023-04-02T09:22:48.803Z,5.03
2023-04-02T09:25:21.424Z,5.44
2023-04-02T09:27:54.751Z,5.33
2023-04-02T09:30:33.710Z,6.06
2023-04-02T09:33:08.049Z,6.09
2023-04-02T09:35:37.810Z,6.01
2023-04-02T09:38:22.100Z,5.82
2023-04-02T09:41:02.933Z,5.92
2023-04-02T09:43:38.267Z,6.16
2023-04-02T09:46:06.716Z,5.95
2023-04-02T09:48:40.950Z,6.52
2023-04-02T09:51:16.607Z,6.73
2023-04-02T09:53:46.023Z,6.61
2023-04-02T09:56:20.023Z,6.25
2023-04-02T09:59:04.477Z,6.33
2023-04-02T10:01:35.768Z,6.57
2023-04-02T10:04:04.972Z,6.66
2023-04-02T10:06:34.218Z,6.50
2023-04-02T10:09:21.741Z,6.47
2023-04-02T10:11:50.537Z,6.55
2023-04-02T10:14:24.336Z,6.57
2023-04-02T10:17:12.126Z,6.76
2023-04-02T10:20:06.542Z,6.27
2023-04-02T10:22:33.436Z,6.34
2023-04-02T10:25:00.149Z,6.20
2023-04-02T10:27:44.944Z,6.14
2023-04-02T10:30:16.135Z,6.14
2023-04-02T10:33:03.526Z,6.16
2023-04-02T10:35:47.432Z,6.62
2023-04-02T10:38:34.215Z,6.54
2023-04-02T10:41:19.062Z,6.39
2023-04-02T10:43:55.911Z,6.51
2023-04-02T10:46:33.535Z,6.80
2023-04-02T10:49:13.993Z,6.73
2023-04-02T10:51:59.435Z,6.99
2023-04-02T10:54:44.536Z,7.35
2023-04-02T10:57:36.061Z,7.84
2023-04-02T11:00:11.592Z,8.44
2023-04-02T11:03:03.152Z,8.70
2023-04-02T11:05:46.916Z,8.61
2023-04-02T11:08:48.988Z,8.55
2023-04-02T11:11:20.304Z,8.80
2023-04-02T11:13:55.858Z,9.11
2023-04-02T11:16:23.621Z,8.62
2023-04-02T11:19:19.086Z,8.05
2023-04-02T11:21:59.599Z,7.96
2023-04-02T11:24:30.598Z,7.52
2023-04-02T11:27:14.598Z,7.67
2023-04-02T11:29:45.114Z,7.93
2023-04-02T11:32:22.161Z,7.42
2023-04-02T11:34:56.387Z,7.75
2023-04-02T11:37:39.859Z,8.48
2023-04-02T11:40:14.058Z,9.08
2023-04-02T11:42:41.080Z,8.61
2023-04-02T11:45:22.977Z,8.63
2023-04-02T11:48:08.473Z,8.67
2023-04-02T11:50:40.579Z,8.44
2023-04-02T11:53:16.461Z,8.29
2023-04-02T11:55:44.755Z,8.08
2023-04-02T11:58:29.423Z,7.64
2023-04-02T12:01:20.990Z,7.62
2023-04-02T12:04:02.670Z,7.79
2023-04-02T12:06:47.601Z,8.18
2023-04-02T12:09:28.134Z,8.70
2023-04-02T12:11:58.180Z,8.70
2023-04-02T12:14:36.826Z,8.44
2023-04-02T12:17:21.742Z,9.03
2023-04-02T12:20:20.525Z,8.89
2023-04-02T12:22:51.185Z,8.79
2023-04-02T12:25:33.394Z,8.73
2023-04-02T12:28:14.719Z,8.52
2023-04-02T12:30:41.854Z,8.58
2023-04-02T12:33:20.663Z,8.88
2023-04-02T12:35:49.376Z,9.12
2023-04-02T12:38:26.027Z,9.39
2023-04-02T12:41:04.896Z,9.29
2023-04-02T12:43:34.101Z,9.97
2023-04-02T12:46:06.660Z,10.00
2023-04-02T12:48:35.098Z,9.55
2023-04-02T12:51:04.343Z,9.67
2023-04-02T12:53:40.646Z,9.57
2023-04-02T12:56:11.321Z,9.43
2023-04-02T12:58:41.654Z,9.36
2023-04-02T13:01:18.742Z,9.24
2023-04-02T13:04:07.308Z,9.22
2023-04-02T13:06:35.228Z,8.78
2023-04-02T13:09:05.369Z,9.00
2023-04-02T13:11:41.716Z,9.35
2023-04-02T13:14:18.859Z,9.46
2023-04-02T13:16:46.335Z,9.72
2023-04-02T13:19:33.523Z,9.83
2023-04-02T13:22:03.095Z,10.21
2023-04-02T13:24:32.607Z,10.02
2023-04-02T13:27:01.631Z,9.45
2023-04-02T13:29:28.564Z,9.60
2023-04-02T13:32:01.841Z,10.06
2023-04-02T13:34:28.928Z,10.05
2023-04-02T13:36:57.487Z,10.36
2023-04-02T13:39:24.802Z,10.76
2023-04-02T13:42:03.287Z,10.89
2023-04-02T13:44:32.490Z,10.70
2023-04-02T13:46:59.895Z,11.05
2023-04-02T13:49:27.816Z,11.12
2023-04-02T13:52:00.963Z,11.09
2023-04-02T13:54:49.126Z,11.34
2023-04-02T13:57:16.118Z,11.69
2023-04-02T13:59:43.008Z,11.86
2023-04-02T14:02:14.377Z,12.21
2023-04-02T14:04:48.690Z,12.74
2023-04-02T14:07:32.661Z,12.90
2023-04-02T14:10:28.714Z,12.68
2023-04-02T14:13:08.444Z,12.42
2023-04-02T14:16:04.752Z,12.42
2023-04-02T14:18:46.402Z,12.67
2023-04-02T14:21:43.221Z,12.40
2023-04-02T14:24:19.182Z,13.59
2023-04-02T14:26:57.904Z,13.90
2023-04-02T14:30:03.628Z,13.63
2023-04-02T14:32:55.042Z,13.65
2023-04-02T14:35:28.904Z,13.75
2023-04-02T14:37:58.717Z,13.33
2023-04-02T14:40:49.684Z,12.88
2023-04-02T14:43:23.826Z,13.47
2023-04-02T14:46:00.373Z,12.92
2023-04-02T14:48:36.255Z,13.13
2023-04-02T14:51:18.469Z,13.77
2023-04-02T14:53:58.323Z,13.55
2023-04-02T14:56:26.077Z,13.31
2023-04-02T14:59:22.826Z,13.75
2023-04-02T15:01:54.724Z,13.63
2023-04-02T15:04:31.129Z,13.00
2023-04-02T15:07:05.731Z,12.97
2023-04-02T15:09:38.932Z,13.26
2023-04-02T15:12:23.812Z,12.94
2023-04-02T15:15:40.042Z,13.12
2023-04-02T15:18:17.627Z,13.18
2023-04-02T15:21:08.585Z,14.00
2023-04-02T15:23:44.297Z,13.54
2023-04-02T15:26:13.849Z,13.09
2023-04-02T15:29:29.024Z,14.09
2023-04-02T15:32:16.149Z,13.66
2023-04-02T15:34:57.798Z,12.61
2023-04-02T15:37:49.248Z,13.04
2023-04-02T15:40:21.874Z,12.82
2023-04-02T15:43:14.619Z,13.03
2023-04-02T15:46:04.602Z,12.96
2023-04-02T15:48:55.284Z,12.48
2023-04-02T15:51:33.187Z,12.74
2023-04-02T15:54:20.934Z,12.86
2023-04-02T15:57:18.776Z,12.62
2023-04-02T16:00:04.078Z,12.34
2023-04-02T16:02:46.266Z,12.04
2023-04-02T16:06:13.105Z,12.38
2023-04-02T16:08:45.142Z,11.48
2023-04-02T16:11:14.913Z,12.03
2023-04-02T16:13:43.954Z,12.71
2023-04-02T16:16:26.030Z,12.49
2023-04-02T16:19:16.631Z,11.54
2023-04-02T16:21:54.615Z,11.65
2023-04-02T16:24:21.494Z,10.66
2023-04-02T16:26:57.726Z,9.85
2023-04-02T16:29:27.481Z,9.45
2023-04-02T16:32:05.846Z,8.87
2023-04-02T16:35:01.792Z,8.47
2023-04-02T16:38:24.508Z,8.47
2023-04-02T16:41:07.680Z,8.55
2023-04-02T16:43:49.408Z,8.33
2023-04-02T16:47:10.385Z,8.31
2023-04-02T16:49:47.293Z,8.14
2023-04-02T16:52:13.926Z,7.99
2023-04-02T16:55:12.676Z,7.84
2023-04-02T16:58:06.782Z,7.77
2023-04-02T17:00:50.309Z,7.71
2023-04-02T17:03:41.997Z,7.63
2023-04-02T17:06:29.854Z,7.58
2023-04-02T17:09:05.857Z,7.50
2023-04-02T17:11:48.353Z,7.47
2023-04-02T17:14:21.016Z,7.47
2023-04-02T17:16:51.568Z,7.42
2023-04-02T17:19:20.979Z,7.37
2023-04-02T17:21:52.299Z,7.33
2023-04-02T17:24:28.278Z,7.27
2023-04-02T17:27:00.902Z,7.22
2023-04-02T17:29:35.957Z,7.16
2023-04-02T17:32:06.349Z,7.07
2023-04-02T17:34:33.123Z,7.04
2023-04-02T17:37:23.940Z,6.99
2023-04-02T17:40:02.590Z,6.88
2023-04-02T17:42:35.427Z,6.81
2023-04-02T17:45:11.129Z,6.71
2023-04-02T17:48:13.157Z,6.63
2023-04-02T17:50:49.403Z,6.52
2023-04-02T17:53:25.227Z,6.46
2023-04-02T17:56:27.946Z,6.39
2023-04-02T17:59:49.043Z,6.32
2023-04-02T18:02:43.664Z,6.23
2023-04-02T18:05:10.654Z,6.15
2023-04-02T18:07:47.027Z,6.08
2023-04-02T18:10:25.176Z,6.03
2023-04-02T18:12:55.527Z,5.97
2023-04-02T18:15:58.420Z,5.94
2023-04-02T18:18:50.179Z,5.86
2023-04-02T18:21:58.365Z,5.77
2023-04-02T18:24:43.172Z,5.66
2023-04-02T18:27:22.076Z,5.66
2023-04-02T18:29:48.810Z,5.55
2023-04-02T18:32:53.030Z,5.46
2023-04-02T18:35:25.903Z,5.47
2023-04-02T18:38:13.716Z,5.42
2023-04-02T18:41:05.360Z,5.34
2023-04-02T18:43:44.141Z,5.30
2023-04-02T18:46:22.970Z,5.29
2023-04-02T18:49:00.098Z,5.22
2023-04-02T18:51:32.097Z,5.12
2023-04-02T18:54:35.800Z,5.09
2023-04-02T18:57:14.832Z,5.07
2023-04-02T18:59:48.955Z,4.95
2023-04-02T19:02:34.538Z,4.96
2023-04-02T19:05:13.848Z,4.90
2023-04-02T19:07:43.659Z,4.74
2023-04-02T19:10:31.937Z,4.67
2023-04-02T19:12:58.641Z,4.69
2023-04-02T19:15:38.651Z,4.58
2023-04-02T19:18:28.565Z,4.54
2023-04-02T19:21:07.084Z,4.53
2023-04-02T19:23:37.753Z,4.47
2023-04-02T19:26:14.335Z,4.52
2023-04-02T19:28:46.630Z,4.49
2023-04-02T19:31:33.871Z,4.44
2023-04-02T19:34:12.044Z,4.43
2023-04-02T19:37:02.052Z,4.38
2023-04-02T19:39:53.866Z,4.29
2023-04-02T19:42:29.831Z,4.25
2023-04-02T19:44:57.252Z,4.17
2023-04-02T19:47:24.773Z,4.19
2023-04-02T19:49:51.896Z,4.19
2023-04-02T19:52:19.708Z,4.11
2023-04-02T19:54:46.519Z,4.08
2023-04-02T19:57:15.790Z,3.99
2023-04-02T19:59:42.702Z,3.97
2023-04-02T20:02:10.796Z,3.92
2023-04-02T20:04:38.042Z,3.92
2023-04-02T20:07:04.776Z,3.87
2023-04-02T20:09:31.559Z,3.76
2023-04-02T20:11:58.391Z,3.76
2023-04-02T20:14:25.078Z,3.70
2023-04-02T20:16:52.133Z,3.70
2023-04-02T20:19:19.044Z,3.70
2023-04-02T20:21:45.848Z,3.67
2023-04-02T20:24:12.614Z,3.62
2023-04-02T20:26:39.379Z,3.60
2023-04-02T20:29:06.150Z,3.59
2023-04-02T20:31:34.622Z,3.55
2023-04-02T20:34:02.966Z,3.59
2023-04-02T20:36:30.246Z,3.58
2023-04-02T20:38:57.713Z,3.56
2023-04-02T20:41:24.676Z,3.58
2023-04-02T20:43:51.575Z,3.59
2023-04-02T20:46:18.455Z,3.53
2023-04-02T20:48:45.451Z,3.50
2023-04-02T20:51:14.820Z,3.44
2023-04-02T20:53:41.663Z,3.43
2023-04-02T20:56:14.661Z,3.43
2023-04-02T20:58:42.359Z,3.44
2023-04-02T21:01:16.393Z,3.40
2023-04-02T21:03:43.933Z,3.35
2023-04-02T21:06:16.007Z,3.41
2023-04-02T21:08:43.452Z,3.36
2023-04-02T21:11:11.011Z,3.33
2023-04-02T21:13:38.628Z,3.28
2023-04-02T21:16:21.860Z,3.22
2023-04-02T21:18:51.509Z,3.20
2023-04-02T21:21:19.507Z,3.21
2023-04-02T21:23:46.901Z,3.16
2023-04-02T21:26:16.902Z,3.16
2023-04-02T21:28:44.554Z,3.13
2023-04-02T21:31:38.093Z,3.07
2023-04-02T21:34:06.267Z,2.99
2023-04-02T21:36:35.892Z,3.01
2023-04-02T21:39:06.249Z,2.95
2023-04-02T21:41:38.997Z,2.90
2023-04-02T21:44:07.597Z,2.92
2023-04-02T21:46:39.729Z,2.89
2023-04-02T21:49:08.562Z,2.80
2023-04-02T21:51:37.150Z,2.86
2023-04-02T21:54:04.212Z,2.79
2023-04-02T21:56:33.500Z,2.76
2023-04-02T21:59:02.207Z,2.72
2023-04-02T22:01:35.704Z,2.70
2023-04-02T22:04:05.312Z,2.63
2023-04-02T22:06:37.025Z,2.59
2023-04-02T22:09:07.231Z,2.57
2023-04-02T22:11:36.973Z,2.50
2023-04-02T22:14:04.836Z,2.39
2023-04-02T22:16:33.756Z,2.37
2023-04-02T22:19:02.389Z,2.36
2023-04-02T22:21:31.253Z,2.38
2023-04-02T22:24:02.422Z,2.31
2023-04-02T22:26:31.421Z,2.30
2023-04-02T22:28:58.814Z,2.32
2023-04-02T22:31:28.543Z,2.24
2023-04-02T22:33:57.036Z,2.19
2023-04-02T22:36:25.069Z,2.17
2023-04-02T22:38:52.042Z,2.11
2023-04-02T22:41:25.800Z,2.10
2023-04-02T22:43:55.766Z,2.09
2023-04-02T22:46:23.091Z,2.02
2023-04-02T22:48:50.436Z,1.98
2023-04-02T22:51:20.099Z,1.94
2023-04-02T22:53:47.147Z,1.91
2023-04-02T22:56:20.331Z,1.89
2023-04-02T22:58:47.058Z,1.83
2023-04-02T23:01:43.667Z,1.80
2023-04-02T23:04:10.455Z,1.81
2023-04-02T23:06:37.130Z,1.77
2023-04-02T23:09:04.358Z,1.71
2023-04-02T23:11:31.035Z,1.66
2023-04-02T23:13:58.433Z,1.65
2023-04-02T23:16:28.455Z,1.61
2023-04-02T23:18:56.617Z,1.60
2023-04-02T23:21:24.813Z,1.53
2023-04-02T23:23:52.144Z,1.53
2023-04-02T23:26:21.972Z,1.46
2023-04-02T23:28:49.656Z,1.42
2023-04-02T23:31:19.829Z,1.37
2023-04-02T23:33:46.538Z,1.35
2023-04-02T23:36:33.653Z,1.30
2023-04-02T23:39:09.662Z,1.26
2023-04-02T23:41:38.328Z,1.27
2023-04-02T23:44:05.394Z,1.23
2023-04-02T23:46:33.118Z,1.19
2023-04-02T23:49:00.839Z,1.14
2023-04-02T23:51:29.124Z,1.08
2023-04-02T23:53:56.485Z,1.07
2023-04-02T23:56:23.307Z,1.02
2023-04-02T23:58:51.050Z,0.99
